Time;durP1;ratioP1;P1;durP2;ratioP2;P2;SDS_P1;SDS_P2;PMS_P1;PMS_P2;Temp;Humidity;BMP_temperature;BMP_pressure;BME280_temperature;BME280_humidity;BME280_pressure;Samples;Min_cycle;Max_cycle;Signal;HPM_P1;HPM_P2
2022/02/25 00:00:47;;;;;;;15.23;10.27;;;;;;;;;;5098282;28;20651;-72
2022/02/25 00:03:14;;;;;;;21.50;11.23;;;;;;;;;;5097036;28;20103;-73
2022/02/25 00:05:40;;;;;;;21.48;12.73;;;;;;;;;;5095278;28;20087;-72
2022/02/25 00:08:07;;;;;;;19.38;11.80;;;;;;;;;;5097694;28;20035;-72
2022/02/25 00:10:33;;;;;;;18.42;11.27;;;;;;;;;;5098483;28;20028;-73
2022/02/25 00:12:59;;;;;;;16.60;9.52;;;;;;;;;;5098081;28;20020;-72
2022/02/25 00:15:25;;;;;;;16.63;9.73;;;;;;;;;;5080260;28;20057;-72
2022/02/25 00:17:51;;;;;;;19.70;11.07;;;;;;;;;;5093787;28;20028;-72
2022/02/25 00:20:17;;;;;;;17.35;10.82;;;;;;;;;;5109270;28;20066;-72
2022/02/25 00:22:43;;;;;;;15.95;10.23;;;;;;;;;;5077648;28;20060;-72
2022/02/25 00:25:10;;;;;;;16.25;10.40;;;;;;;;;;5098281;28;20035;-73
2022/02/25 00:27:39;;;;;;;15.10;9.55;;;;;;;;;;5098479;28;20102;-72
2022/02/25 00:30:05;;;;;;;15.20;9.43;;;;;;;;;;5095203;28;20365;-72
2022/02/25 00:32:31;;;;;;;14.15;9.52;;;;;;;;;;5109171;28;20059;-72
2022/02/25 00:34:57;;;;;;;14.95;9.45;;;;;;;;;;5097782;28;20050;-72
2022/02/25 00:37:23;;;;;;;16.13;10.05;;;;;;;;;;5097736;28;20059;-72
2022/02/25 00:39:49;;;;;;;13.88;8.88;;;;;;;;;;5098025;28;20451;-72
2022/02/25 00:42:15;;;;;;;16.20;9.60;;;;;;;;;;5096966;28;20023;-72
2022/02/25 00:44:41;;;;;;;14.20;9.40;;;;;;;;;;5093987;28;20036;-72
2022/02/25 00:47:07;;;;;;;13.85;9.23;;;;;;;;;;5078462;28;20016;-72
2022/02/25 00:49:33;;;;;;;15.98;9.38;;;;;;;;;;5080011;28;20028;-72
2022/02/25 00:52:00;;;;;;;16.27;9.60;;;;;;;;;;5097616;28;20473;-72
2022/02/25 00:54:26;;;;;;;16.30;9.30;;;;;;;;;;5097623;28;20025;-72
2022/02/25 00:56:51;;;;;;;12.98;7.68;;;;;;;;;;5091966;28;20468;-72
2022/02/25 00:59:17;;;;;;;16.42;10.25;;;;;;;;;;5086789;28;20058;-72
2022/02/25 01:01:45;;;;;;;14.48;9.38;;;;;;;;;;5097480;28;20047;-72
2022/02/25 01:04:11;;;;;;;16.05;9.20;;;;;;;;;;5097533;28;20103;-72
2022/02/25 01:06:37;;;;;;;15.50;10.25;;;;;;;;;;5096717;28;20169;-72
2022/02/25 01:09:03;;;;;;;16.42;9.80;;;;;;;;;;5094600;28;20034;-73
2022/02/25 01:11:29;;;;;;;16.58;9.32;;;;;;;;;;5108524;28;20054;-73
2022/02/25 01:13:55;;;;;;;15.77;9.85;;;;;;;;;;5097649;28;20465;-72
2022/02/25 01:16:21;;;;;;;17.33;10.02;;;;;;;;;;5097255;28;20035;-73
2022/02/25 01:18:48;;;;;;;15.45;9.38;;;;;;;;;;5097456;28;20028;-72
2022/02/25 01:21:14;;;;;;;14.05;9.82;;;;;;;;;;5089342;28;20058;-72
2022/02/25 01:23:40;;;;;;;17.42;10.13;;;;;;;;;;5093379;28;20032;-73
2022/02/25 01:26:06;;;;;;;17.27;9.75;;;;;;;;;;5096743;28;20028;-72
2022/02/25 01:28:34;;;;;;;16.83;10.18;;;;;;;;;;5097077;28;20113;-72
2022/02/25 01:31:01;;;;;;;15.02;9.88;;;;;;;;;;5096623;28;20040;-72
2022/02/25 01:33:27;;;;;;;16.38;9.50;;;;;;;;;;5078703;28;20092;-72
2022/02/25 01:35:53;;;;;;;15.25;8.88;;;;;;;;;;5092539;28;20080;-72
2022/02/25 01:38:19;;;;;;;15.00;8.20;;;;;;;;;;5096175;28;20107;-73
2022/02/25 01:40:45;;;;;;;13.95;8.70;;;;;;;;;;5096447;28;20396;-72
2022/02/25 01:43:11;;;;;;;16.83;8.75;;;;;;;;;;5096650;28;20027;-72
2022/02/25 01:45:37;;;;;;;13.73;8.30;;;;;;;;;;5096342;28;20039;-72
2022/02/25 01:48:04;;;;;;;14.52;8.98;;;;;;;;;;5076458;28;20027;-72
2022/02/25 01:50:30;;;;;;;16.15;10.10;;;;;;;;;;5108327;28;20036;-72
2022/02/25 01:53:00;;;;;;;15.75;10.30;;;;;;;;;;5086797;28;20027;-73
2022/02/25 01:55:27;;;;;;;16.27;9.07;;;;;;;;;;5098683;28;20030;-72
2022/02/25 01:57:53;;;;;;;14.40;9.48;;;;;;;;;;5096559;28;20028;-72
2022/02/25 02:00:20;;;;;;;16.75;9.48;;;;;;;;;;5096144;28;20032;-72
2022/02/25 02:02:46;;;;;;;15.60;9.75;;;;;;;;;;5092957;28;20028;-71
2022/02/25 02:05:12;;;;;;;15.68;9.98;;;;;;;;;;5095440;28;20495;-71
2022/02/25 02:07:38;;;;;;;16.30;10.00;;;;;;;;;;5096192;28;20030;-72
2022/02/25 02:10:04;;;;;;;15.48;9.73;;;;;;;;;;5099676;28;20028;-72
2022/02/25 02:12:30;;;;;;;17.20;9.40;;;;;;;;;;5100751;28;20059;-72
2022/02/25 02:14:56;;;;;;;16.17;8.88;;;;;;;;;;5097222;28;20823;-72
2022/02/25 02:17:22;;;;;;;14.85;8.70;;;;;;;;;;5111903;28;20024;-72
2022/02/25 02:19:48;;;;;;;13.30;8.50;;;;;;;;;;5109666;28;20023;-72
2022/02/25 02:22:15;;;;;;;15.77;9.05;;;;;;;;;;5105226;28;20032;-72
2022/02/25 02:24:41;;;;;;;15.50;8.30;;;;;;;;;;5100977;28;20039;-72
2022/02/25 02:27:07;;;;;;;17.23;8.93;;;;;;;;;;5097432;28;20084;-72
2022/02/25 02:29:33;;;;;;;16.70;8.05;;;;;;;;;;5093469;28;20058;-72
2022/02/25 02:31:59;;;;;;;13.40;8.18;;;;;;;;;;5099921;28;20536;-71
2022/02/25 02:34:25;;;;;;;14.73;8.75;;;;;;;;;;5082647;28;20019;-72
2022/02/25 02:36:51;;;;;;;13.43;8.50;;;;;;;;;;5082592;28;20028;-72
2022/02/25 02:39:17;;;;;;;14.50;8.40;;;;;;;;;;5081459;28;20028;-72
2022/02/25 02:41:44;;;;;;;12.85;8.20;;;;;;;;;;5095990;28;20156;-72
2022/02/25 02:44:10;;;;;;;13.10;8.35;;;;;;;;;;5099828;28;20043;-72
2022/02/25 02:46:37;;;;;;;14.13;7.97;;;;;;;;;;5100078;28;20389;-72
2022/02/25 02:49:03;;;;;;;13.98;7.40;;;;;;;;;;5100394;28;20031;-72
2022/02/25 02:51:29;;;;;;;13.70;7.78;;;;;;;;;;5099827;28;20031;-71
2022/02/25 02:53:56;;;;;;;14.57;8.48;;;;;;;;;;5095868;28;20020;-71
2022/02/25 02:56:22;;;;;;;14.15;8.07;;;;;;;;;;5098267;28;20473;-71
2022/02/25 02:58:55;;;;;;;13.60;7.90;;;;;;;;;;5082431;28;20028;-71
2022/02/25 03:01:23;;;;;;;13.98;8.10;;;;;;;;;;5099538;28;20050;-72
2022/02/25 03:03:49;;;;;;;13.88;8.10;;;;;;;;;;5099144;28;20031;-71
2022/02/25 03:06:14;;;;;;;13.43;8.23;;;;;;;;;;5097003;28;20028;-70
2022/02/25 03:08:40;;;;;;;12.77;7.90;;;;;;;;;;5111439;28;20057;-72
2022/02/25 03:11:06;;;;;;;12.23;7.70;;;;;;;;;;5098870;28;20036;-71
2022/02/25 03:13:32;;;;;;;14.10;7.93;;;;;;;;;;5099171;28;20051;-72
2022/02/25 03:15:58;;;;;;;12.45;6.78;;;;;;;;;;5099582;28;20032;-71
2022/02/25 03:18:24;;;;;;;14.18;7.68;;;;;;;;;;5099249;28;20020;-71
2022/02/25 03:20:50;;;;;;;13.20;8.02;;;;;;;;;;5093877;28;20028;-71
2022/02/25 03:23:16;;;;;;;12.95;7.53;;;;;;;;;;5098903;28;20024;-71
2022/02/25 03:25:42;;;;;;;15.85;8.50;;;;;;;;;;5098909;28;20032;-72
2022/02/25 03:28:08;;;;;;;13.95;7.47;;;;;;;;;;5081568;28;20439;-72
2022/02/25 03:30:34;;;;;;;12.80;6.97;;;;;;;;;;5098506;28;20071;-71
2022/02/25 03:33:00;;;;;;;12.38;7.28;;;;;;;;;;5096144;28;20081;-71
2022/02/25 03:35:27;;;;;;;12.43;7.22;;;;;;;;;;5078938;28;20020;-71
2022/02/25 03:37:53;;;;;;;13.65;7.72;;;;;;;;;;5108629;28;20024;-72
2022/02/25 03:40:19;;;;;;;12.43;7.20;;;;;;;;;;5102216;28;20131;-71
2022/02/25 03:42:45;;;;;;;12.65;7.05;;;;;;;;;;5099297;28;20047;-71
2022/02/25 03:45:12;;;;;;;14.50;7.43;;;;;;;;;;5096164;28;20073;-71
2022/02/25 03:47:38;;;;;;;12.38;7.28;;;;;;;;;;5110983;28;20109;-71
2022/02/25 03:50:05;;;;;;;13.10;6.97;;;;;;;;;;5098506;28;20031;-70
2022/02/25 03:52:32;;;;;;;11.53;6.97;;;;;;;;;;5098424;28;20039;-71
2022/02/25 03:54:58;;;;;;;13.07;7.22;;;;;;;;;;5098376;28;20618;-71
2022/02/25 03:57:24;;;;;;;13.25;7.13;;;;;;;;;;5081267;28;20030;-72
2022/02/25 03:59:50;;;;;;;15.60;8.15;;;;;;;;;;5094458;28;20027;-71
2022/02/25 04:02:16;;;;;;;10.80;6.82;;;;;;;;;;5080184;28;20028;-71
2022/02/25 04:04:42;;;;;;;11.48;6.72;;;;;;;;;;5098229;28;20028;-71
2022/02/25 04:07:08;;;;;;;12.93;8.00;;;;;;;;;;5098700;28;20047;-72
2022/02/25 04:09:34;;;;;;;11.90;6.80;;;;;;;;;;5097872;28;20028;-71
2022/02/25 04:12:02;;;;;;;11.73;6.82;;;;;;;;;;5096613;28;20035;-72
2022/02/25 04:14:28;;;;;;;12.98;6.50;;;;;;;;;;5112211;28;20106;-72
2022/02/25 04:16:54;;;;;;;10.80;6.43;;;;;;;;;;5112221;28;20029;-71
2022/02/25 04:19:21;;;;;;;11.93;6.93;;;;;;;;;;5111548;28;20021;-71
2022/02/25 04:21:47;;;;;;;12.80;7.30;;;;;;;;;;5110541;28;20447;-71
2022/02/25 04:24:14;;;;;;;10.95;6.80;;;;;;;;;;5111162;28;20098;-71
2022/02/25 04:26:40;;;;;;;13.13;7.55;;;;;;;;;;5111684;28;20023;-71
2022/02/25 04:29:06;;;;;;;10.32;6.47;;;;;;;;;;5112543;28;20047;-72
2022/02/25 04:31:32;;;;;;;12.82;7.20;;;;;;;;;;5111012;28;20031;-71
2022/02/25 04:33:58;;;;;;;8.82;4.97;;;;;;;;;;5111421;28;20031;-71
2022/02/25 04:36:24;;;;;;;10.77;7.07;;;;;;;;;;5111519;28;20039;-71
2022/02/25 04:38:52;;;;;;;10.95;6.22;;;;;;;;;;5090973;28;20015;-71
2022/02/25 04:41:18;;;;;;;14.65;7.20;;;;;;;;;;5112016;28;20020;-71
2022/02/25 04:43:45;;;;;;;11.90;7.43;;;;;;;;;;5098293;28;20051;-71
2022/02/25 04:46:15;;;;;;;10.45;6.88;;;;;;;;;;5097527;28;20038;-71
2022/02/25 04:48:41;;;;;;;12.50;7.10;;;;;;;;;;5097935;28;20106;-71
2022/02/25 04:51:07;;;;;;;12.60;6.78;;;;;;;;;;5095634;28;20532;-71
2022/02/25 04:53:33;;;;;;;11.10;6.38;;;;;;;;;;5094607;28;20118;-71
2022/02/25 04:55:59;;;;;;;10.43;6.55;;;;;;;;;;5097008;28;20024;-70
2022/02/25 04:58:25;;;;;;;11.15;6.53;;;;;;;;;;5080051;28;20384;-70
2022/02/25 05:00:51;;;;;;;12.95;6.82;;;;;;;;;;5097883;28;20024;-71
2022/02/25 05:03:17;;;;;;;13.52;7.30;;;;;;;;;;5094891;28;20024;-71
2022/02/25 05:05:43;;;;;;;11.18;6.60;;;;;;;;;;5108945;28;20019;-70
2022/02/25 05:08:09;;;;;;;10.32;6.13;;;;;;;;;;5096822;28;20032;-70
2022/02/25 05:10:35;;;;;;;9.95;6.03;;;;;;;;;;5097247;28;20040;-70
2022/02/25 05:13:01;;;;;;;10.27;6.18;;;;;;;;;;5079389;28;20103;-71
2022/02/25 05:20:56;;;;;;;10.75;6.53;;;;;;;;;;5093653;28;20496;-70
2022/02/25 05:23:22;;;;;;;13.38;7.60;;;;;;;;;;5095359;28;20028;-70
2022/02/25 05:25:48;;;;;;;12.48;7.20;;;;;;;;;;5097464;28;20024;-70
2022/02/25 05:28:14;;;;;;;11.77;7.00;;;;;;;;;;5096976;28;20036;-70
2022/02/25 05:30:40;;;;;;;12.40;7.38;;;;;;;;;;5096737;28;20412;-71
2022/02/25 05:33:07;;;;;;;11.63;6.88;;;;;;;;;;5094058;28;20024;-71
2022/02/25 05:35:33;;;;;;;11.35;6.25;;;;;;;;;;5094640;28;20024;-70
2022/02/25 05:37:59;;;;;;;10.93;6.22;;;;;;;;;;5096450;28;20020;-70
2022/02/25 05:40:25;;;;;;;11.07;6.35;;;;;;;;;;5097308;28;20062;-71
2022/02/25 05:42:51;;;;;;;10.77;6.22;;;;;;;;;;5096474;28;20032;-71
2022/02/25 05:45:17;;;;;;;13.00;6.32;;;;;;;;;;5095215;28;20092;-71
2022/02/25 05:47:44;;;;;;;10.30;6.25;;;;;;;;;;5093182;28;20028;-71
2022/02/25 05:50:13;;;;;;;12.93;6.78;;;;;;;;;;5096329;28;20039;-71
2022/02/25 05:52:39;;;;;;;10.18;5.90;;;;;;;;;;5096348;28;20031;-70
2022/02/25 05:55:05;;;;;;;9.60;5.22;;;;;;;;;;5096648;28;20016;-69
2022/02/25 05:57:31;;;;;;;12.38;6.13;;;;;;;;;;5079490;28;20023;-72
2022/02/25 05:59:57;;;;;;;11.02;5.70;;;;;;;;;;5093944;28;20031;-72
2022/02/25 06:02:23;;;;;;;11.90;6.80;;;;;;;;;;5077167;28;20440;-73
2022/02/25 06:04:50;;;;;;;11.68;6.43;;;;;;;;;;5106675;28;20051;-72
2022/02/25 06:07:16;;;;;;;12.85;6.85;;;;;;;;;;5101026;28;20020;-73
2022/02/25 06:09:42;;;;;;;11.27;5.55;;;;;;;;;;5096953;28;20046;-70
2022/02/25 06:12:08;;;;;;;9.60;6.05;;;;;;;;;;5094488;28;20512;-70
2022/02/25 06:14:34;;;;;;;17.13;9.48;;;;;;;;;;5094251;28;20485;-70
2022/02/25 06:17:00;;;;;;;13.38;7.43;;;;;;;;;;5096015;28;20111;-71
2022/02/25 06:19:26;;;;;;;12.23;6.32;;;;;;;;;;5096108;28;20016;-71
2022/02/25 06:21:52;;;;;;;12.07;6.78;;;;;;;;;;5075923;28;20485;-71
2022/02/25 06:24:18;;;;;;;11.25;6.80;;;;;;;;;;5095552;28;20020;-72
2022/02/25 06:26:44;;;;;;;11.27;7.10;;;;;;;;;;5109781;28;20111;-70
2022/02/25 06:29:11;;;;;;;11.52;6.93;;;;;;;;;;5077393;28;20063;-70
2022/02/25 06:31:37;;;;;;;14.13;7.07;;;;;;;;;;5096015;28;20044;-70
2022/02/25 06:34:03;;;;;;;12.38;6.63;;;;;;;;;;5096293;28;20020;-70
2022/02/25 06:36:29;;;;;;;10.70;6.82;;;;;;;;;;5096092;28;20034;-70
2022/02/25 06:38:55;;;;;;;11.98;6.63;;;;;;;;;;5075434;28;20020;-70
2022/02/25 06:41:23;;;;;;;14.27;7.45;;;;;;;;;;5107414;28;20028;-70
2022/02/25 06:43:49;;;;;;;10.80;6.95;;;;;;;;;;5105626;28;20031;-70
2022/02/25 06:46:15;;;;;;;11.70;7.43;;;;;;;;;;5101002;28;20024;-70
2022/02/25 06:48:41;;;;;;;15.27;7.07;;;;;;;;;;5078624;28;20045;-70
2022/02/25 06:51:08;;;;;;;10.00;5.57;;;;;;;;;;5093609;28;20055;-70
2022/02/25 06:53:36;;;;;;;12.02;7.50;;;;;;;;;;5093173;28;20020;-70
2022/02/25 06:56:02;;;;;;;9.15;5.07;;;;;;;;;;5095275;28;20032;-71
2022/02/25 06:58:28;;;;;;;17.20;9.60;;;;;;;;;;5080540;28;20093;-70
2022/02/25 07:00:54;;;;;;;12.18;7.57;;;;;;;;;;5081103;28;20476;-70
2022/02/25 07:03:20;;;;;;;13.30;7.60;;;;;;;;;;5097759;28;20506;-70
2022/02/25 07:05:46;;;;;;;13.98;7.97;;;;;;;;;;5076834;28;20020;-70
2022/02/25 07:08:12;;;;;;;11.43;6.65;;;;;;;;;;5098703;28;20373;-71
2022/02/25 07:10:39;;;;;;;11.27;6.15;;;;;;;;;;5082132;28;20480;-70
2022/02/25 07:13:07;;;;;;;10.43;6.32;;;;;;;;;;5099379;28;20032;-70
2022/02/25 07:15:33;;;;;;;11.63;6.57;;;;;;;;;;5099180;28;20034;-70
2022/02/25 07:17:59;;;;;;;17.13;8.48;;;;;;;;;;5078441;28;20596;-70
2022/02/25 07:20:25;;;;;;;11.63;7.22;;;;;;;;;;5097593;28;20028;-70
2022/02/25 07:22:52;;;;;;;11.13;6.45;;;;;;;;;;5081858;28;20028;-70
2022/02/25 07:25:18;;;;;;;12.02;6.22;;;;;;;;;;5081041;28;20482;-70
2022/02/25 07:27:45;;;;;;;12.00;6.57;;;;;;;;;;5081720;28;20067;-70
2022/02/25 07:30:12;;;;;;;10.88;6.70;;;;;;;;;;5097489;28;20111;-70
2022/02/25 07:32:37;;;;;;;12.27;7.05;;;;;;;;;;5096238;28;20496;-70
2022/02/25 07:35:05;;;;;;;10.65;5.85;;;;;;;;;;5098643;28;20028;-70
2022/02/25 07:37:31;;;;;;;9.90;6.35;;;;;;;;;;5099178;28;20039;-70
2022/02/25 07:39:56;;;;;;;10.70;6.82;;;;;;;;;;5100227;28;20024;-70
2022/02/25 07:42:23;;;;;;;8.95;6.10;;;;;;;;;;5110888;28;20032;-68
2022/02/25 07:44:49;;;;;;;7.90;5.35;;;;;;;;;;5094622;28;20027;-70
2022/02/25 07:47:17;;;;;;;8.40;5.35;;;;;;;;;;5098348;28;20032;-68
2022/02/25 07:49:45;;;;;;;10.85;7.25;;;;;;;;;;5098453;28;20026;-68
2022/02/25 07:52:11;;;;;;;;;;;;;;;;;;5099255;28;20039;-68
2022/02/25 07:54:37;;;;;;;14.10;6.68;;;;;;;;;;5098395;28;19914;-71
2022/02/25 07:57:03;;;;;;;8.02;5.63;;;;;;;;;;5095393;28;20027;-69
2022/02/25 07:59:29;;;;;;;10.57;6.75;;;;;;;;;;5078146;28;20027;-70
2022/02/25 08:01:55;;;;;;;10.90;6.80;;;;;;;;;;5098676;28;20020;-70
2022/02/25 08:04:21;;;;;;;9.95;7.07;;;;;;;;;;5098137;28;20503;-71
2022/02/25 08:06:47;;;;;;;8.48;6.10;;;;;;;;;;5080379;28;20024;-69
2022/02/25 08:09:13;;;;;;;9.30;5.45;;;;;;;;;;5096946;28;20032;-68
2022/02/25 08:11:39;;;;;;;8.05;5.68;;;;;;;;;;5095387;28;20120;-70
2022/02/25 08:14:05;;;;;;;9.05;6.15;;;;;;;;;;5079542;28;20047;-69
2022/02/25 08:16:31;;;;;;;9.27;5.85;;;;;;;;;;5098216;28;20089;-69
2022/02/25 08:18:57;;;;;;;7.65;5.20;;;;;;;;;;5098387;28;20020;-69
2022/02/25 08:21:23;;;;;;;8.57;5.40;;;;;;;;;;5098094;28;20028;-70
2022/02/25 08:23:49;;;;;;;9.90;4.85;;;;;;;;;;5093212;28;20057;-69
2022/02/25 08:26:15;;;;;;;7.90;5.38;;;;;;;;;;5097241;28;20063;-69
2022/02/25 08:28:41;;;;;;;8.68;4.90;;;;;;;;;;5098135;28;20044;-69
2022/02/25 08:31:11;;;;;;;11.73;5.18;;;;;;;;;;5097769;28;20473;-68
2022/02/25 08:33:38;;;;;;;5.38;3.47;;;;;;;;;;5080528;28;20028;-69
2022/02/25 08:36:04;;;;;;;3.55;2.60;;;;;;;;;;5077718;28;20516;-69
2022/02/25 08:38:30;;;;;;;3.55;2.35;;;;;;;;;;5076501;28;20511;-69
2022/02/25 08:40:56;;;;;;;0.03;0.03;;;;;;;;;;5097967;28;20020;-69
2022/02/25 08:43:24;;;;;;;0.10;0.10;;;;;;;;;;5097932;28;20028;-68
2022/02/25 08:45:50;;;;;;;0.00;0.00;;;;;;;;;;5079970;28;20392;-69
2022/02/25 08:48:16;;;;;;;0.20;0.08;;;;;;;;;;5079115;28;20023;-71
2022/02/25 08:50:42;;;;;;;0.00;0.00;;;;;;;;;;5076065;28;20176;-70
2022/02/25 08:53:08;;;;;;;0.00;0.00;;;;;;;;;;5108390;28;20023;-69
2022/02/25 08:55:34;;;;;;;1.13;0.08;;;;;;;;;;5099642;28;20484;-70
2022/02/25 08:58:00;;;;;;;0.20;0.20;;;;;;;;;;5098318;28;20024;-70
2022/02/25 09:00:26;;;;;;;0.20;0.10;;;;;;;;;;5097355;28;20380;-70
2022/02/25 09:02:52;;;;;;;0.00;0.00;;;;;;;;;;5092405;28;20034;-70
2022/02/25 09:05:19;;;;;;;1.50;0.03;;;;;;;;;;5108563;28;20115;-69
2022/02/25 09:07:46;;;;;;;0.00;0.00;;;;;;;;;;5097920;28;20028;-71
2022/02/25 09:10:13;;;;;;;0.40;0.20;;;;;;;;;;5079543;28;20058;-71
2022/02/25 09:12:40;;;;;;;0.00;0.00;;;;;;;;;;5096943;28;20023;-71
2022/02/25 09:15:08;;;;;;;0.10;0.00;;;;;;;;;;5076488;28;20047;-69
2022/02/25 09:17:34;;;;;;;0.20;0.10;;;;;;;;;;5094724;28;20034;-69
2022/02/25 09:20:00;;;;;;;0.15;0.08;;;;;;;;;;5096329;28;20066;-68
2022/02/25 09:22:26;;;;;;;0.52;0.10;;;;;;;;;;5097136;28;20081;-69
2022/02/25 09:24:52;;;;;;;0.13;0.10;;;;;;;;;;5096870;28;20488;-69
2022/02/25 09:27:19;;;;;;;0.10;0.10;;;;;;;;;;5076920;28;20035;-69
2022/02/25 09:29:45;;;;;;;0.10;0.10;;;;;;;;;;5108902;28;20055;-69
2022/02/25 09:32:11;;;;;;;0.30;0.10;;;;;;;;;;5078404;28;20043;-69
2022/02/25 09:34:37;;;;;;;0.13;0.10;;;;;;;;;;5079531;28;20028;-69
2022/02/25 09:37:04;;;;;;;0.00;0.00;;;;;;;;;;5099437;28;20567;-69
2022/02/25 09:39:30;;;;;;;0.10;0.10;;;;;;;;;;5107299;28;20229;-69
2022/02/25 09:41:59;;;;;;;0.20;0.20;;;;;;;;;;5075356;28;20539;-69
2022/02/25 09:44:26;;;;;;;2.30;0.20;;;;;;;;;;5094834;28;20043;-69
2022/02/25 09:46:53;;;;;;;0.47;0.10;;;;;;;;;;5096983;28;20023;-69
2022/02/25 09:49:19;;;;;;;0.65;0.20;;;;;;;;;;5096974;28;20017;-69
2022/02/25 09:51:46;;;;;;;0.20;0.10;;;;;;;;;;5096265;28;20036;-69
2022/02/25 09:54:18;;;;;;;0.20;0.10;;;;;;;;;;5077586;28;20094;-68
2022/02/25 09:56:46;;;;;;;0.10;0.10;;;;;;;;;;5074748;28;20020;-70
2022/02/25 09:59:12;;;;;;;0.28;0.17;;;;;;;;;;5095901;28;20032;-69
2022/02/25 10:01:38;;;;;;;0.32;0.15;;;;;;;;;;5096756;28;20085;-69
2022/02/25 10:04:19;;;;;;;0.43;0.10;;;;;;;;;;5096328;28;20024;-69
2022/02/25 10:06:45;;;;;;;0.10;0.10;;;;;;;;;;5096680;28;20190;-69
2022/02/25 10:09:12;;;;;;;1.65;0.20;;;;;;;;;;5094842;28;20472;-70
2022/02/25 10:12:00;;;;;;;0.55;0.20;;;;;;;;;;5093755;28;20444;-69
2022/02/25 10:14:30;;;;;;;0.10;0.10;;;;;;;;;;5107540;28;20019;-69
2022/02/25 10:17:05;;;;;;;0.30;0.10;;;;;;;;;;5106263;28;20376;-69
2022/02/25 10:19:31;;;;;;;0.10;0.10;;;;;;;;;;5098881;28;20020;-70
2022/02/25 10:22:16;;;;;;;0.95;0.20;;;;;;;;;;5078780;28;20102;-69
2022/02/25 10:24:46;;;;;;;0.00;0.00;;;;;;;;;;5095920;28;20024;-70
2022/02/25 10:27:16;;;;;;;0.15;0.15;;;;;;;;;;5094625;28;20024;-69
2022/02/25 10:30:11;;;;;;;0.10;0.10;;;;;;;;;;5093923;28;20044;-70
2022/02/25 10:32:37;;;;;;;0.38;0.10;;;;;;;;;;5078830;28;20132;-70
2022/02/25 10:35:22;;;;;;;0.25;0.15;;;;;;;;;;5081529;28;20058;-70
2022/02/25 10:37:54;;;;;;;0.55;0.22;;;;;;;;;;5100131;28;20024;-69
2022/02/25 10:40:20;;;;;;;0.20;0.20;;;;;;;;;;5099692;28;20533;-70
2022/02/25 10:42:46;;;;;;;0.50;0.20;;;;;;;;;;5099958;28;20066;-69
2022/02/25 10:45:12;;;;;;;0.20;0.20;;;;;;;;;;5080776;28;20055;-69
2022/02/25 10:47:43;;;;;;;0.00;0.00;;;;;;;;;;5097203;28;20024;-69
2022/02/25 10:50:09;;;;;;;0.30;0.20;;;;;;;;;;5099239;28;20027;-70
2022/02/25 10:52:37;;;;;;;0.08;0.08;;;;;;;;;;5100002;28;20400;-69
2022/02/25 10:55:04;;;;;;;0.10;0.10;;;;;;;;;;5102237;28;20082;-70
2022/02/25 10:57:33;;;;;;;0.00;0.00;;;;;;;;;;5092729;28;20088;-69
2022/02/25 11:00:00;;;;;;;0.10;0.10;;;;;;;;;;5095810;28;20108;-69
2022/02/25 11:02:28;;;;;;;0.10;0.10;;;;;;;;;;5097886;28;20024;-69
2022/02/25 11:05:05;;;;;;;0.10;0.10;;;;;;;;;;5091099;28;20061;-69
2022/02/25 11:07:31;;;;;;;0.60;0.10;;;;;;;;;;5101885;28;20162;-69
2022/02/25 11:09:57;;;;;;;0.10;0.10;;;;;;;;;;5081919;28;20031;-69
2022/02/25 11:12:24;;;;;;;0.10;0.10;;;;;;;;;;5098990;28;20105;-69
2022/02/25 11:14:51;;;;;;;0.20;0.20;;;;;;;;;;5095434;28;20028;-70
2022/02/25 11:17:18;;;;;;;0.20;0.20;;;;;;;;;;5080955;28;20024;-69
2022/02/25 11:19:44;;;;;;;0.40;0.20;;;;;;;;;;5081569;28;20028;-70
2022/02/25 11:22:11;;;;;;;0.40;0.20;;;;;;;;;;5081729;28;20217;-70
2022/02/25 11:24:37;;;;;;;0.20;0.20;;;;;;;;;;5098991;28;20101;-69
2022/02/25 11:27:06;;;;;;;0.20;0.20;;;;;;;;;;5095867;28;20057;-69
2022/02/25 11:29:35;;;;;;;0.30;0.10;;;;;;;;;;5096378;28;20048;-69
2022/02/25 11:32:02;;;;;;;0.00;0.00;;;;;;;;;;5098574;28;20035;-69
2022/02/25 11:34:28;;;;;;;0.10;0.10;;;;;;;;;;5077586;28;20012;-69
2022/02/25 11:36:54;;;;;;;0.00;0.00;;;;;;;;;;5081464;28;20028;-69
2022/02/25 11:39:21;;;;;;;0.08;0.08;;;;;;;;;;5098343;28;20099;-70
2022/02/25 11:41:51;;;;;;;0.10;0.10;;;;;;;;;;5075551;28;20028;-70
2022/02/25 11:44:18;;;;;;;0.25;0.10;;;;;;;;;;5109832;28;20380;-69
2022/02/25 11:46:44;;;;;;;1.00;0.00;;;;;;;;;;5099180;28;20031;-70
2022/02/25 11:49:13;;;;;;;0.20;0.20;;;;;;;;;;5099137;27;20075;-69
2022/02/25 11:51:41;;;;;;;0.20;0.10;;;;;;;;;;5105028;28;20043;-69
2022/02/25 11:54:26;;;;;;;0.13;0.10;;;;;;;;;;5104778;28;20027;-70
2022/02/25 11:56:59;;;;;;;0.00;0.00;;;;;;;;;;5089364;28;20084;-69
2022/02/25 11:59:25;;;;;;;0.20;0.20;;;;;;;;;;5105107;28;20388;-70
2022/02/25 12:02:06;;;;;;;0.30;0.20;;;;;;;;;;5091475;28;20029;-68
2022/02/25 12:04:36;;;;;;;0.10;0.10;;;;;;;;;;5102366;27;20557;-67
2022/02/25 12:07:03;;;;;;;0.10;0.10;;;;;;;;;;5096837;28;20024;-65
2022/02/25 12:09:44;;;;;;;0.45;0.10;;;;;;;;;;5089863;28;20028;-66
2022/02/25 12:12:23;;;;;;;0.00;0.00;;;;;;;;;;5090834;28;20047;-68
2022/02/25 12:15:07;;;;;;;0.35;0.20;;;;;;;;;;5109574;28;20158;-68
2022/02/25 12:17:36;;;;;;;0.17;0.15;;;;;;;;;;5109022;28;20030;-67
2022/02/25 12:20:05;;;;;;;0.00;0.00;;;;;;;;;;5096816;28;20109;-66
2022/02/25 12:22:46;;;;;;;0.22;0.20;;;;;;;;;;5097254;28;20024;-67
2022/02/25 12:25:13;;;;;;;0.10;0.10;;;;;;;;;;5079264;28;20074;-64
2022/02/25 12:27:39;;;;;;;0.10;0.10;;;;;;;;;;5096343;28;20066;-66
2022/02/25 12:30:24;;;;;;;0.30;0.20;;;;;;;;;;5094453;28;20035;-66
2022/02/25 12:32:52;;;;;;;0.17;0.10;;;;;;;;;;5092174;28;20039;-66
2022/02/25 12:35:38;;;;;;;0.38;0.17;;;;;;;;;;5089352;28;20019;-66
2022/02/25 12:38:04;;;;;;;0.13;0.13;;;;;;;;;;5095067;28;20492;-68
2022/02/25 12:40:30;;;;;;;0.05;0.00;;;;;;;;;;5078864;28;20027;-67
2022/02/25 12:42:56;;;;;;;0.55;0.10;;;;;;;;;;5079127;28;20028;-67
2022/02/25 12:45:28;;;;;;;0.90;0.20;;;;;;;;;;5095903;28;20032;-68
2022/02/25 12:47:54;;;;;;;0.20;0.20;;;;;;;;;;5090856;28;20072;-68
2022/02/25 12:50:20;;;;;;;0.43;0.17;;;;;;;;;;5093667;28;20024;-67
2022/02/25 12:52:46;;;;;;;0.00;0.00;;;;;;;;;;5110780;28;20024;-67
2022/02/25 12:55:16;;;;;;;0.15;0.00;;;;;;;;;;5109843;28;20094;-67
2022/02/25 12:57:42;;;;;;;0.30;0.10;;;;;;;;;;5090461;28;20094;-68
2022/02/25 13:00:10;;;;;;;0.20;0.20;;;;;;;;;;5108181;28;20489;-68
2022/02/25 13:02:36;;;;;;;0.20;0.20;;;;;;;;;;5094892;28;20411;-68
2022/02/25 13:05:03;;;;;;;0.73;0.30;;;;;;;;;;5096822;28;20038;-67
2022/02/25 13:07:29;;;;;;;0.32;0.20;;;;;;;;;;5079266;28;20020;-67
2022/02/25 13:09:55;;;;;;;0.08;0.08;;;;;;;;;;5096185;28;20067;-67
2022/02/25 13:12:23;;;;;;;0.10;0.10;;;;;;;;;;5096565;28;20059;-68
2022/02/25 13:14:59;;;;;;;0.95;0.35;;;;;;;;;;5092902;28;20030;-67
2022/02/25 13:17:24;;;;;;;0.55;0.35;;;;;;;;;;5108028;28;20099;-67
2022/02/25 13:19:52;;;;;;;0.10;0.10;;;;;;;;;;5096684;28;20119;-68
2022/02/25 13:22:31;;;;;;;0.20;0.20;;;;;;;;;;5097041;28;20620;-67
2022/02/25 13:25:00;;;;;;;0.13;0.13;;;;;;;;;;5096853;28;20094;-67
2022/02/25 13:27:28;;;;;;;0.93;0.40;;;;;;;;;;5079204;28;20064;-67
2022/02/25 13:29:54;;;;;;;0.22;0.10;;;;;;;;;;5093458;28;20093;-67
2022/02/25 13:32:25;;;;;;;0.20;0.20;;;;;;;;;;5107905;28;20051;-68
2022/02/25 13:34:51;;;;;;;0.20;0.10;;;;;;;;;;5097335;28;20032;-68
2022/02/25 13:37:17;;;;;;;0.28;0.20;;;;;;;;;;5097042;28;20110;-68
2022/02/25 13:39:44;;;;;;;0.20;0.20;;;;;;;;;;5097075;28;20077;-68
2022/02/25 13:42:10;;;;;;;0.30;0.20;;;;;;;;;;5094796;28;20032;-67
2022/02/25 13:44:37;;;;;;;0.20;0.10;;;;;;;;;;5093935;28;20101;-67
2022/02/25 13:52:37;;;;;;;0.38;0.20;;;;;;;;;;5097060;28;20048;-67
2022/02/25 13:55:06;;;;;;;1.10;0.17;;;;;;;;;;5096644;28;20125;-67
2022/02/25 13:57:40;;;;;;;0.60;0.38;;;;;;;;;;5096945;28;20032;-68
2022/02/25 14:00:23;;;;;;;0.82;0.40;;;;;;;;;;5093946;28;20020;-67
2022/02/25 14:02:50;;;;;;;0.30;0.30;;;;;;;;;;5092658;28;20101;-67
2022/02/25 14:05:20;;;;;;;0.13;0.10;;;;;;;;;;5097771;28;20012;-67
2022/02/25 14:07:46;;;;;;;1.15;0.30;;;;;;;;;;5107360;28;20051;-68
2022/02/25 14:10:23;;;;;;;0.50;0.28;;;;;;;;;;5105924;28;20471;-67
2022/02/25 14:12:49;;;;;;;0.60;0.30;;;;;;;;;;5101045;28;20024;-67
2022/02/25 14:15:16;;;;;;;1.75;0.20;;;;;;;;;;5099124;28;20018;-68
2022/02/25 14:17:43;;;;;;;0.20;0.20;;;;;;;;;;5078848;28;20032;-68
2022/02/25 14:20:14;;;;;;;0.10;0.10;;;;;;;;;;5100359;28;20511;-67
2022/02/25 14:22:44;;;;;;;0.63;0.13;;;;;;;;;;5100304;28;20024;-68
2022/02/25 14:25:18;;;;;;;0.20;0.20;;;;;;;;;;5100734;28;20106;-68
2022/02/25 14:27:56;;;;;;;0.43;0.20;;;;;;;;;;5082318;28;20495;-67
2022/02/25 14:30:23;;;;;;;;;;;;;;;;;;5082938;28;20028;-67
2022/02/25 14:32:50;;;;;;;0.15;0.15;;;;;;;;;;5078028;28;20356;-68
2022/02/25 14:35:24;;;;;;;0.38;0.10;;;;;;;;;;5099610;28;20607;-67
2022/02/25 14:37:50;;;;;;;0.52;0.10;;;;;;;;;;5088133;28;20139;-65
2022/02/25 14:40:16;;;;;;;1.35;0.30;;;;;;;;;;5099945;28;20020;-66
2022/02/25 14:42:42;;;;;;;1.52;0.20;;;;;;;;;;5082407;28;20035;-66
2022/02/25 14:45:08;;;;;;;0.85;0.35;;;;;;;;;;5080183;28;20016;-66
2022/02/25 14:47:34;;;;;;;0.10;0.10;;;;;;;;;;5096930;28;20028;-66